TAF LFOE
METAR LFOE
LFOE 091100Z AUTO 24009KT CAVOK 06/03 Q1007 NOSIG=
LFOE 091030Z AUTO 24008KT CAVOK 05/02 Q1007 NOSIG=
LFOE 091000Z AUTO 23005KT CAVOK 04/02 Q1007 NOSIG=
LFOE 090930Z AUTO 23008KT CAVOK 03/02 Q1007 NOSIG=
LFOE 090900Z AUTO 23009KT CAVOK 03/01 Q1007 NOSIG=
WC LFOE
WS LFOE
WV LFOE